Portada
METAR-TAF:

METAR-TAF

Aeroports :

Peshawar, Pakistan

latitud: 34-01N, longitud: 071-35E, altitud: 359 m

Observació

L'informe es va fer fa 24 minuts, a les 11:30 UTC
Vent 4 kt del Nord-Est
Temperatura 41°C
Humitat 21%
Pressió 1002 hPa
Visibilitat 10 km o més
Escasses núvols a una alçada de 4000 ft

METAR: OPPS 251130Z 05004KT 9999 FEW040 41/14 Q1002

Hora: 16:54 (11:54 UTC)

Pronòstic

L'informe es va fer fa 2 hores i 29 minuts, a les 09:25 UTC
Pronòstic vàlid del 25 a les 12 UTC al 26 a les 18 UTC
Vent 10 kt del Sud/Sud-Oest
Visibilitat: 5000 m
calitja
Evolucionant progressivament
l' 26 a les 03 UTC al 26 a les 05 UTC
Vent 10 kt del Sud/Sud-Oest
Visibilitat 10 km o més
sense núvols per sota de 1500 mi sense presència de cumulonimbus.
Evolucionant progressivament
l' 26 a les 13 UTC al 26 a les 15 UTC
Vent 10 kt del Sud/Sud-Oest
Visibilitat: 5000 m
calitja

TAF: OPPS 250925Z 2512/2618 21010KT 5000 HZ NSC BECMG 2603/2605 21010KT CAVOK BECMG 2613/2615 21010KT 5000 HZ NSC

Observacions i pronòstics meteorològics de més de 4000 aeroports (METAR i TAF).

Les estacions disponibles són els punts grocs i vermells al mapa.

Posi el ratolí al punt desitjat per veure el nom de l'estació.

Feu clic per veure les observacions i els pronòstics meteorològics.

Per canviar el mapa: feu clic els botons verds amb una creu de color negre per apropar; al botó verd amb un guió per allunyar la imatge; o en les fletxes verdes per a mapes adjacents.


METAR-TAF: